createdAt,value
2022-09-13T00:02:23.116Z,4.80
2022-09-13T00:04:56.022Z,4.90
2022-09-13T00:07:28.552Z,3.70
2022-09-13T00:10:01.274Z,5.10
2022-09-13T00:12:33.759Z,8.30
2022-09-13T00:15:07.453Z,4.50
2022-09-13T00:17:40.304Z,5.90
2022-09-13T00:20:13.363Z,5.10
2022-09-13T00:22:46.570Z,4.90
2022-09-13T00:25:19.806Z,6.30
2022-09-13T00:27:52.256Z,6.10
2022-09-13T00:30:25.113Z,4.90
2022-09-13T00:32:58.095Z,5.50
2022-09-13T00:35:31.567Z,5.90
2022-09-13T00:38:04.282Z,6.00
2022-09-13T00:40:39.976Z,4.70
2022-09-13T00:44:00.607Z,5.90
2022-09-13T00:46:35.648Z,6.10
2022-09-13T00:49:37.650Z,6.10
2022-09-13T00:52:15.252Z,4.40
2022-09-13T00:54:54.760Z,4.10
2022-09-13T00:57:28.913Z,4.20
2022-09-13T01:00:15.763Z,3.00
2022-09-13T01:02:55.035Z,4.50
2022-09-13T01:05:37.614Z,3.00
2022-09-13T01:08:16.708Z,4.70
2022-09-13T01:10:51.402Z,2.60
2022-09-13T01:13:34.532Z,4.30
2022-09-13T01:16:07.595Z,4.50
2022-09-13T01:18:40.655Z,1.90
2022-09-13T01:21:18.623Z,3.60
2022-09-13T01:24:23.254Z,3.40
2022-09-13T01:27:15.957Z,3.90
2022-09-13T01:30:08.854Z,3.10
2022-09-13T01:32:54.284Z,3.30
2022-09-13T01:35:53.835Z,3.80
2022-09-13T01:38:58.231Z,3.10
2022-09-13T01:41:38.876Z,2.70
2022-09-13T01:44:45.040Z,3.20
2022-09-13T01:47:49.093Z,2.60
2022-09-13T01:50:34.345Z,3.40
2022-09-13T01:53:23.769Z,3.90
2022-09-13T01:56:07.398Z,3.40
2022-09-13T01:59:01.150Z,3.70
2022-09-13T02:01:59.294Z,3.10
2022-09-13T02:04:39.068Z,2.90
2022-09-13T02:07:16.966Z,3.40
2022-09-13T02:09:57.726Z,3.30
2022-09-13T02:12:33.838Z,4.00
2022-09-13T02:15:17.088Z,4.60
2022-09-13T02:18:09.405Z,3.10
2022-09-13T02:23:21.408Z,4.90
2022-09-13T02:25:57.893Z,3.20
2022-09-13T02:28:38.802Z,4.10
2022-09-13T02:31:13.792Z,4.20
2022-09-13T02:34:00.440Z,2.80
2022-09-13T02:36:38.510Z,2.70
2022-09-13T02:39:17.434Z,2.70
2022-09-13T02:42:03.968Z,3.60
2022-09-13T02:45:08.456Z,2.80
2022-09-13T02:47:59.853Z,3.00
2022-09-13T02:50:50.559Z,3.40
2022-09-13T02:53:41.654Z,2.90
2022-09-13T02:56:26.094Z,3.20
2022-09-13T02:59:15.473Z,4.20
2022-09-13T03:01:53.340Z,3.00
2022-09-13T03:04:30.812Z,3.20
2022-09-13T03:07:05.982Z,4.00
2022-09-13T03:09:38.915Z,2.40
2022-09-13T03:12:35.239Z,3.80
2022-09-13T03:15:43.036Z,3.70
2022-09-13T03:18:15.440Z,2.60
2022-09-13T03:21:06.335Z,4.40
2022-09-13T03:24:08.284Z,4.30
2022-09-13T03:26:46.060Z,2.90
2022-09-13T03:29:32.136Z,4.40
2022-09-13T03:32:41.795Z,3.80
2022-09-13T03:35:58.140Z,3.90
2022-09-13T03:38:44.359Z,3.70
2022-09-13T03:41:27.041Z,1.90
2022-09-13T03:44:08.142Z,3.20
2022-09-13T03:46:50.897Z,4.70
2022-09-13T03:49:27.020Z,4.00
2022-09-13T03:52:01.374Z,3.30
2022-09-13T03:54:38.748Z,3.90
2022-09-13T03:57:13.758Z,3.00
2022-09-13T03:59:51.135Z,3.90
2022-09-13T04:02:25.993Z,3.50
2022-09-13T04:04:59.500Z,3.10
2022-09-13T04:07:33.299Z,3.30
2022-09-13T04:10:09.713Z,2.70
2022-09-13T04:12:48.109Z,3.00
2022-09-13T04:15:21.170Z,4.30
2022-09-13T04:17:54.557Z,3.90
2022-09-13T04:20:27.550Z,3.20
2022-09-13T04:23:00.853Z,3.20
2022-09-13T04:25:34.193Z,3.70
2022-09-13T04:28:07.490Z,2.70
2022-09-13T04:30:42.808Z,3.00
2022-09-13T04:33:17.616Z,3.50
2022-09-13T04:35:50.830Z,4.80
2022-09-13T04:38:23.796Z,3.60
2022-09-13T04:40:57.600Z,3.10
2022-09-13T04:43:30.614Z,4.70
2022-09-13T04:46:04.225Z,5.00
2022-09-13T04:48:38.345Z,4.40
2022-09-13T04:51:11.786Z,3.90
2022-09-13T04:53:45.351Z,4.20
2022-09-13T04:56:20.674Z,6.00
2022-09-13T04:58:57.894Z,6.00
2022-09-13T05:01:32.112Z,4.30
2022-09-13T05:04:06.652Z,5.30
2022-09-13T05:06:40.718Z,5.30
2022-09-13T05:09:16.809Z,4.90
2022-09-13T05:11:50.159Z,4.80
2022-09-13T05:14:23.152Z,4.70
2022-09-13T05:16:56.022Z,5.00
2022-09-13T05:19:34.152Z,5.80
2022-09-13T05:22:07.643Z,5.40
2022-09-13T05:24:46.011Z,6.30
2022-09-13T05:27:19.309Z,6.80
2022-09-13T05:29:52.930Z,5.50
2022-09-13T05:32:26.191Z,5.30
2022-09-13T05:34:59.899Z,3.40
2022-09-13T05:37:33.778Z,5.30
2022-09-13T05:40:11.781Z,6.20
2022-09-13T05:42:48.214Z,6.10
2022-09-13T05:45:21.678Z,6.10
2022-09-13T05:47:55.319Z,7.00
2022-09-13T05:50:57.397Z,6.60
2022-09-13T05:53:30.360Z,10.40
2022-09-13T05:56:04.012Z,6.80
2022-09-13T05:58:40.582Z,5.50
2022-09-13T06:01:15.055Z,6.60
2022-09-13T06:03:58.109Z,5.90
2022-09-13T06:06:32.087Z,6.70
2022-09-13T06:09:09.409Z,7.20
2022-09-13T06:11:44.545Z,7.50
2022-09-13T06:14:19.332Z,6.80
2022-09-13T06:16:53.397Z,8.10
2022-09-13T06:19:27.671Z,7.70
2022-09-13T06:22:01.438Z,5.00
2022-09-13T06:24:39.462Z,7.10
2022-09-13T06:27:18.243Z,8.40
2022-09-13T06:29:52.981Z,7.40
2022-09-13T06:32:27.472Z,8.20
2022-09-13T06:35:02.447Z,7.50
2022-09-13T06:37:36.815Z,6.60
2022-09-13T06:40:11.658Z,7.60
2022-09-13T06:42:45.685Z,7.20
2022-09-13T06:45:19.543Z,8.00
2022-09-13T06:48:10.804Z,9.70
2022-09-13T06:50:46.723Z,9.80
2022-09-13T06:53:20.418Z,7.90
2022-09-13T06:56:03.536Z,8.70
2022-09-13T06:58:40.585Z,8.60
2022-09-13T07:01:18.105Z,8.80
2022-09-13T07:03:59.981Z,8.40
2022-09-13T07:06:36.346Z,9.10
2022-09-13T07:09:11.393Z,8.60
2022-09-13T07:11:47.755Z,8.70
2022-09-13T07:14:31.083Z,8.40
2022-09-13T07:17:05.372Z,8.50
2022-09-13T07:19:39.257Z,6.00
2022-09-13T07:22:13.087Z,9.40
2022-09-13T07:24:46.126Z,11.90
2022-09-13T07:27:19.738Z,9.10
2022-09-13T07:29:56.987Z,9.10
2022-09-13T07:32:30.628Z,8.80
2022-09-13T07:35:07.657Z,8.10
2022-09-13T07:37:43.002Z,10.20
2022-09-13T07:40:17.330Z,8.70
2022-09-13T07:42:56.441Z,9.60
2022-09-13T07:45:30.376Z,10.40
2022-09-13T07:48:04.710Z,11.00
2022-09-13T07:50:38.391Z,10.20
2022-09-13T07:53:17.003Z,12.80
2022-09-13T07:55:50.696Z,16.20
2022-09-13T07:58:24.306Z,11.30
2022-09-13T08:01:00.226Z,10.30
2022-09-13T08:03:36.062Z,14.90
2022-09-13T08:06:14.393Z,12.30
2022-09-13T08:08:48.225Z,10.60
2022-09-13T08:11:24.886Z,9.40
2022-09-13T08:13:59.133Z,9.70
2022-09-13T08:16:34.300Z,13.40
2022-09-13T08:19:09.225Z,12.60
2022-09-13T08:21:44.405Z,11.50
2022-09-13T08:24:22.310Z,9.60
2022-09-13T08:26:58.007Z,10.00
2022-09-13T08:29:33.017Z,11.30
2022-09-13T08:32:07.366Z,11.40
2022-09-13T08:34:41.412Z,10.90
2022-09-13T08:37:16.942Z,9.60
2022-09-13T08:39:49.907Z,9.60
2022-09-13T08:42:30.860Z,10.00
2022-09-13T08:45:04.915Z,10.50
2022-09-13T08:47:57.611Z,10.10
2022-09-13T08:50:39.094Z,12.90
2022-09-13T08:53:33.042Z,12.50
2022-09-13T08:56:17.813Z,10.50
2022-09-13T08:59:25.911Z,10.40
2022-09-13T09:02:25.713Z,10.50
2022-09-13T09:05:16.141Z,11.20
2022-09-13T09:08:24.353Z,10.30
2022-09-13T09:11:01.260Z,12.50
2022-09-13T09:13:52.913Z,10.80
2022-09-13T09:16:43.710Z,13.00
2022-09-13T09:19:35.241Z,10.50
2022-09-13T09:22:22.939Z,10.00
2022-09-13T09:25:00.360Z,10.10
2022-09-13T09:27:35.117Z,7.80
2022-09-13T09:30:15.670Z,9.60
2022-09-13T09:33:18.867Z,9.50
2022-09-13T09:36:31.222Z,9.90
2022-09-13T09:39:08.897Z,9.00
2022-09-13T09:41:42.775Z,10.10
2022-09-13T09:44:24.150Z,13.10
2022-09-13T09:47:17.249Z,9.80
2022-09-13T09:50:15.260Z,10.00
2022-09-13T09:53:08.343Z,10.50
2022-09-13T09:55:54.209Z,10.10
2022-09-13T09:58:55.024Z,9.60
2022-09-13T10:01:43.347Z,9.30
2022-09-13T10:04:23.157Z,9.70
2022-09-13T10:07:36.542Z,9.80
2022-09-13T10:10:23.457Z,10.20
2022-09-13T10:13:00.159Z,11.60
2022-09-13T10:15:36.644Z,12.50
2022-09-13T10:18:43.528Z,11.50
2022-09-13T10:21:21.453Z,11.00
2022-09-13T10:23:56.190Z,11.70
2022-09-13T10:26:30.696Z,9.90
2022-09-13T10:29:17.643Z,10.00
2022-09-13T10:32:01.204Z,8.40
2022-09-13T10:34:40.914Z,9.20
2022-09-13T10:37:36.505Z,10.10
2022-09-13T10:40:35.550Z,8.20
2022-09-13T10:43:23.671Z,8.90
2022-09-13T10:45:57.546Z,7.60
2022-09-13T10:48:33.133Z,6.60
2022-09-13T10:51:08.207Z,8.00
2022-09-13T10:53:44.346Z,7.00
2022-09-13T10:56:44.744Z,7.80
2022-09-13T10:59:31.006Z,7.90
2022-09-13T11:02:32.551Z,6.80
2022-09-13T11:05:16.897Z,6.90
2022-09-13T11:07:56.745Z,8.00
2022-09-13T11:10:44.854Z,6.80
2022-09-13T11:13:53.494Z,7.00
2022-09-13T11:16:55.203Z,7.40
2022-09-13T11:19:28.334Z,7.30
2022-09-13T11:22:15.785Z,6.80
2022-09-13T11:25:23.756Z,7.00
2022-09-13T11:28:23.791Z,7.10
2022-09-13T11:31:38.429Z,6.30
2022-09-13T11:34:43.924Z,6.60
2022-09-13T11:37:28.930Z,6.80
2022-09-13T11:40:31.871Z,6.90
2022-09-13T11:43:08.429Z,7.70
2022-09-13T11:45:51.378Z,8.20
2022-09-13T11:48:33.574Z,7.10
2022-09-13T11:51:30.863Z,7.20
2022-09-13T11:54:19.123Z,7.20
2022-09-13T11:57:04.528Z,7.80
2022-09-13T11:59:46.440Z,7.30
2022-09-13T12:02:39.996Z,6.80
2022-09-13T12:05:37.886Z,7.20
2022-09-13T12:08:30.830Z,6.80
2022-09-13T12:11:19.565Z,7.70
2022-09-13T12:13:59.230Z,6.90
2022-09-13T12:16:54.183Z,6.40
2022-09-13T12:19:32.435Z,7.70
2022-09-13T12:22:13.291Z,7.40
2022-09-13T12:24:53.764Z,8.20
2022-09-13T12:27:36.406Z,8.10
2022-09-13T12:30:26.073Z,7.80
2022-09-13T12:33:00.647Z,7.70
2022-09-13T12:35:53.661Z,6.30
2022-09-13T12:38:43.924Z,7.30
2022-09-13T12:41:21.385Z,8.00
2022-09-13T12:44:27.189Z,9.50
2022-09-13T12:47:31.348Z,7.90
2022-09-13T12:50:42.442Z,8.60
2022-09-13T12:56:00.104Z,7.00
2022-09-13T12:59:09.977Z,8.10
2022-09-13T13:01:49.446Z,6.90
2022-09-13T13:04:37.202Z,9.30
2022-09-13T13:07:22.874Z,7.30
2022-09-13T13:09:58.948Z,8.60
2022-09-13T13:12:35.456Z,7.80
2022-09-13T13:15:33.188Z,6.70
2022-09-13T13:18:32.640Z,6.30
2022-09-13T13:21:04.992Z,6.00
2022-09-13T13:23:40.394Z,7.60
2022-09-13T13:26:42.911Z,7.90
2022-09-13T13:29:29.718Z,6.90
2022-09-13T13:32:04.724Z,5.80
2022-09-13T13:34:51.290Z,6.90
2022-09-13T13:37:34.676Z,8.30
2022-09-13T13:40:30.388Z,6.20
2022-09-13T13:43:26.613Z,6.30
2022-09-13T13:46:43.603Z,7.20
2022-09-13T13:49:34.147Z,7.70
2022-09-13T13:52:26.295Z,5.80
2022-09-13T13:58:02.974Z,6.70
2022-09-13T14:00:38.550Z,9.10
2022-09-13T14:03:32.905Z,6.80
2022-09-13T14:06:09.360Z,7.90
2022-09-13T14:12:09.102Z,7.60
2022-09-13T14:15:02.736Z,9.10
2022-09-13T14:18:08.336Z,6.40
2022-09-13T14:20:59.538Z,7.30
2022-09-13T14:23:34.161Z,6.70
2022-09-13T14:26:08.464Z,7.10
2022-09-13T14:28:43.491Z,6.20
2022-09-13T14:31:21.518Z,9.40
2022-09-13T14:33:54.832Z,6.30
2022-09-13T14:36:28.626Z,9.00
2022-09-13T14:39:03.056Z,6.90
2022-09-13T14:41:40.533Z,5.80
2022-09-13T14:44:29.310Z,5.10
2022-09-13T14:47:23.806Z,9.90
2022-09-13T14:50:09.088Z,7.40
2022-09-13T14:52:50.879Z,6.20
2022-09-13T14:55:30.278Z,7.00
2022-09-13T14:58:09.597Z,5.80
2022-09-13T15:00:54.244Z,7.20
2022-09-13T15:03:29.112Z,8.30
2022-09-13T15:06:06.487Z,7.20
2022-09-13T15:08:46.083Z,5.50
2022-09-13T15:11:33.263Z,7.60
2022-09-13T15:14:32.867Z,7.10
2022-09-13T15:17:12.005Z,7.50
2022-09-13T15:20:05.987Z,6.40
2022-09-13T15:22:45.592Z,6.40
2022-09-13T15:25:24.294Z,6.60
2022-09-13T15:27:59.669Z,8.00
2022-09-13T15:30:40.125Z,8.60
2022-09-13T15:33:12.851Z,7.70
2022-09-13T15:35:48.123Z,6.80
2022-09-13T15:38:33.301Z,7.90
2022-09-13T15:41:29.481Z,5.90
2022-09-13T15:44:11.458Z,6.70
2022-09-13T15:46:57.892Z,7.00
2022-09-13T15:49:31.508Z,7.20
2022-09-13T15:52:06.637Z,10.50
2022-09-13T15:54:46.755Z,6.80
2022-09-13T15:57:32.942Z,5.40
2022-09-13T16:00:06.897Z,7.80
2022-09-13T16:02:43.139Z,6.20
2022-09-13T16:05:16.569Z,7.30
2022-09-13T16:07:50.317Z,9.90
2022-09-13T16:10:24.684Z,7.60
2022-09-13T16:12:58.743Z,7.70
2022-09-13T16:15:33.061Z,7.20
2022-09-13T16:18:09.301Z,7.60
2022-09-13T16:20:42.482Z,7.30
2022-09-13T16:23:15.889Z,6.30
2022-09-13T16:25:49.263Z,7.20
2022-09-13T16:28:23.503Z,7.90
2022-09-13T16:30:57.208Z,6.90
2022-09-13T16:33:32.051Z,6.70
2022-09-13T16:36:05.415Z,7.90
2022-09-13T16:38:38.517Z,8.00
2022-09-13T16:41:11.850Z,8.00
2022-09-13T16:43:44.561Z,7.90
2022-09-13T16:46:18.780Z,10.20
2022-09-13T16:48:58.481Z,10.60
2022-09-13T16:51:31.666Z,11.90
2022-09-13T16:54:04.823Z,13.40
2022-09-13T16:56:38.174Z,12.80
2022-09-13T16:59:11.392Z,13.00
2022-09-13T17:01:44.678Z,10.90
2022-09-13T17:04:18.958Z,10.70
2022-09-13T17:06:52.004Z,8.60
2022-09-13T17:09:28.918Z,12.90
2022-09-13T17:12:03.474Z,25.50
2022-09-13T17:14:37.342Z,19.20
2022-09-13T17:17:10.674Z,15.60
2022-09-13T17:19:44.556Z,21.50
2022-09-13T17:22:18.008Z,17.80
2022-09-13T17:24:51.562Z,21.40
2022-09-13T17:27:25.549Z,18.40
2022-09-13T17:29:59.547Z,16.90
2022-09-13T17:32:33.273Z,18.30
2022-09-13T17:35:07.868Z,20.00
2022-09-13T17:37:43.428Z,11.90
2022-09-13T17:40:16.997Z,10.70
2022-09-13T17:42:51.891Z,12.50
2022-09-13T17:45:26.025Z,19.50
2022-09-13T17:47:59.614Z,21.30
2022-09-13T17:50:33.165Z,24.20
2022-09-13T17:53:07.162Z,29.40
2022-09-13T17:55:47.756Z,23.90
2022-09-13T17:58:21.049Z,18.70
2022-09-13T18:01:05.689Z,22.70
2022-09-13T18:03:39.825Z,26.40
2022-09-13T18:06:16.896Z,20.50
2022-09-13T18:08:50.094Z,13.60
2022-09-13T18:11:23.690Z,14.60
2022-09-13T18:13:57.529Z,14.30
2022-09-13T18:16:32.156Z,12.90
2022-09-13T18:19:05.914Z,15.80
2022-09-13T18:21:40.147Z,18.10
2022-09-13T18:24:13.632Z,33.70
2022-09-13T18:26:46.872Z,40.00
2022-09-13T18:29:19.851Z,45.90
2022-09-13T18:31:53.302Z,48.90
2022-09-13T18:34:27.815Z,57.10
2022-09-13T18:37:01.417Z,71.90
2022-09-13T18:39:34.870Z,48.70
2022-09-13T18:42:08.172Z,22.40
2022-09-13T18:44:41.278Z,18.10
2022-09-13T18:47:14.345Z,14.90
2022-09-13T18:49:47.651Z,13.20
2022-09-13T18:52:20.731Z,13.40
2022-09-13T18:54:53.547Z,10.10
2022-09-13T18:57:27.314Z,13.80
2022-09-13T19:00:00.618Z,12.10
2022-09-13T19:02:34.213Z,16.50
2022-09-13T19:05:07.563Z,18.50
2022-09-13T19:07:42.104Z,12.90
2022-09-13T19:10:16.210Z,17.30
2022-09-13T19:12:49.365Z,17.30
2022-09-13T19:15:22.513Z,13.30
2022-09-13T19:17:55.731Z,11.90
2022-09-13T19:20:28.829Z,12.00
2022-09-13T19:23:02.181Z,11.90
2022-09-13T19:25:37.546Z,12.40
2022-09-13T19:28:10.673Z,15.10
2022-09-13T19:30:43.663Z,14.00
2022-09-13T19:33:17.225Z,18.70
2022-09-13T19:35:50.200Z,15.40
2022-09-13T19:38:23.212Z,11.50
2022-09-13T19:40:59.876Z,13.20
2022-09-13T19:43:34.847Z,12.40
2022-09-13T19:46:13.348Z,11.00
2022-09-13T19:48:48.440Z,11.70
2022-09-13T19:51:28.837Z,14.70
2022-09-13T19:54:02.935Z,15.40
2022-09-13T19:56:39.161Z,14.00
2022-09-13T19:59:14.253Z,18.20
2022-09-13T20:01:48.689Z,15.50
2022-09-13T20:04:25.703Z,11.90
2022-09-13T20:06:58.799Z,10.70
2022-09-13T20:09:32.667Z,14.20
2022-09-13T20:12:07.819Z,12.00
2022-09-13T20:14:40.687Z,13.70
2022-09-13T20:17:14.059Z,13.10
2022-09-13T20:19:50.198Z,19.60
2022-09-13T20:22:24.186Z,17.20
2022-09-13T20:24:58.224Z,13.10
2022-09-13T20:27:33.230Z,15.40
2022-09-13T20:30:12.106Z,12.00
2022-09-13T20:32:49.073Z,13.20
2022-09-13T20:35:22.488Z,11.20
2022-09-13T20:37:55.561Z,11.90
2022-09-13T20:40:28.635Z,10.70
2022-09-13T20:43:01.466Z,11.10
2022-09-13T20:45:34.838Z,11.60
2022-09-13T20:48:08.182Z,10.40
2022-09-13T20:50:42.014Z,10.20
2022-09-13T20:53:17.487Z,11.00
2022-09-13T20:55:51.429Z,11.90
2022-09-13T20:58:25.866Z,12.80
2022-09-13T21:01:03.854Z,14.30
2022-09-13T21:03:41.726Z,11.60
2022-09-13T21:06:15.348Z,14.40
2022-09-13T21:08:50.689Z,11.50
2022-09-13T21:11:30.228Z,12.80
2022-09-13T21:14:06.537Z,12.10
2022-09-13T21:16:44.291Z,12.20
2022-09-13T21:19:17.541Z,11.90
2022-09-13T21:21:50.973Z,11.70
2022-09-13T21:24:24.097Z,11.50
2022-09-13T21:26:57.644Z,11.50
2022-09-13T21:29:31.013Z,11.70
2022-09-13T21:32:04.557Z,11.10
2022-09-13T21:34:37.993Z,12.80
2022-09-13T21:37:11.731Z,11.80
2022-09-13T21:39:44.783Z,12.50
2022-09-13T21:42:18.108Z,11.90
2022-09-13T21:44:51.560Z,12.40
2022-09-13T21:47:25.351Z,15.20
2022-09-13T21:49:58.884Z,12.80
2022-09-13T21:52:32.461Z,12.00
2022-09-13T21:55:05.651Z,11.30
2022-09-13T21:57:39.160Z,11.60
2022-09-13T22:00:14.903Z,11.50
2022-09-13T22:02:48.241Z,12.20
2022-09-13T22:05:21.429Z,11.20
2022-09-13T22:07:55.140Z,12.90
2022-09-13T22:10:28.526Z,11.10
2022-09-13T22:13:01.776Z,12.50
2022-09-13T22:15:36.432Z,10.70
2022-09-13T22:18:09.658Z,11.90
2022-09-13T22:20:42.940Z,11.70
2022-09-13T22:23:16.286Z,11.20
2022-09-13T22:25:49.972Z,12.50
2022-09-13T22:28:23.181Z,10.90
2022-09-13T22:30:56.156Z,10.90
2022-09-13T22:33:29.329Z,11.40
2022-09-13T22:36:07.712Z,11.20
2022-09-13T22:38:41.898Z,11.40
2022-09-13T22:41:23.551Z,12.70
2022-09-13T22:43:57.051Z,11.80
2022-09-13T22:46:45.167Z,10.10
2022-09-13T22:49:20.131Z,12.80
2022-09-13T22:51:54.122Z,14.00
2022-09-13T22:54:26.828Z,10.50
2022-09-13T22:57:01.357Z,11.30
2022-09-13T22:59:34.734Z,10.20
2022-09-13T23:02:08.369Z,12.10
2022-09-13T23:04:41.813Z,11.80
2022-09-13T23:07:14.934Z,11.40
2022-09-13T23:09:48.115Z,10.80
2022-09-13T23:12:21.302Z,10.50
2022-09-13T23:14:54.871Z,12.30
2022-09-13T23:17:28.333Z,11.90
2022-09-13T23:20:01.601Z,11.90
2022-09-13T23:22:35.192Z,11.20
2022-09-13T23:25:08.494Z,11.70
2022-09-13T23:27:41.602Z,10.80
2022-09-13T23:30:15.009Z,11.20
2022-09-13T23:32:51.693Z,10.00
2022-09-13T23:35:24.696Z,11.10
2022-09-13T23:37:57.403Z,12.30
2022-09-13T23:40:30.859Z,12.30
2022-09-13T23:43:03.891Z,11.80
2022-09-13T23:45:37.224Z,11.20
2022-09-13T23:48:10.418Z,11.10
2022-09-13T23:50:43.891Z,11.40
2022-09-13T23:53:17.296Z,10.60
2022-09-13T23:55:51.010Z,10.10
2022-09-13T23:58:24.442Z,13.90
